地図

経路データ

SID SEASON NUMBER BASIN SUBBASIN NAME ISO_TIME NATURE LAT LON WMO_WIND WMO_PRES WMO_AGENCY TRACK_TYPE DIST2LAND LANDFALL IFLAG USA_AGENCY USA_ATCF_ID USA_LAT USA_LON USA_RECORD USA_STATUS USA_WIND USA_PRES USA_SSHS USA_R34_NE USA_R34_SE USA_R34_SW USA_R34_NW USA_R50_NE USA_R50_SE USA_R50_SW USA_R50_NW USA_R64_NE USA_R64_SE USA_R64_SW USA_R64_NW USA_POCI USA_ROCI USA_RMW USA_EYE TOKYO_LAT TOKYO_LON TOKYO_GRADE TOKYO_WIND TOKYO_PRES TOKYO_R50_DIR TOKYO_R50_LONG TOKYO_R50_SHORT TOKYO_R30_DIR TOKYO_R30_LONG TOKYO_R30_SHORT TOKYO_LAND CMA_LAT CMA_LON CMA_CAT CMA_WIND CMA_PRES HKO_LAT HKO_LON HKO_CAT HKO_WIND HKO_PRES NEWDELHI_LAT NEWDELHI_LON NEWDELHI_GRADE NEWDELHI_WIND NEWDELHI_PRES NEWDELHI_CI NEWDELHI_DP NEWDELHI_POCI REUNION_LAT REUNION_LON REUNION_TYPE REUNION_WIND REUNION_PRES REUNION_TNUM REUNION_CI REUNION_RMW REUNION_R34_NE REUNION_R34_SE REUNION_R34_SW REUNION_R34_NW REUNION_R50_NE REUNION_R50_SE REUNION_R50_SW REUNION_R50_NW REUNION_R64_NE REUNION_R64_SE REUNION_R64_SW REUNION_R64_NW BOM_LAT BOM_LON BOM_TYPE BOM_WIND BOM_PRES BOM_TNUM BOM_CI BOM_RMW BOM_R34_NE BOM_R34_SE BOM_R34_SW BOM_R34_NW BOM_R50_NE BOM_R50_SE BOM_R50_SW BOM_R50_NW BOM_R64_NE BOM_R64_SE BOM_R64_SW BOM_R64_NW BOM_ROCI BOM_POCI BOM_EYE BOM_POS_METHOD BOM_PRES_METHOD NADI_LAT NADI_LON NADI_CAT NADI_WIND NADI_PRES WELLINGTON_LAT WELLINGTON_LON WELLINGTON_WIND WELLINGTON_PRES DS824_LAT DS824_LON DS824_STAGE DS824_WIND DS824_PRES TD9636_LAT TD9636_LON TD9636_STAGE TD9636_WIND TD9636_PRES TD9635_LAT TD9635_LON TD9635_WIND TD9635_PRES TD9635_ROCI NEUMANN_LAT NEUMANN_LON NEUMANN_CLASS NEUMANN_WIND NEUMANN_PRES MLC_LAT MLC_LON MLC_CLASS MLC_WIND MLC_PRES USA_GUST BOM_GUST BOM_GUST_PER REUNION_GUST REUNION_GUST_PER USA_SEAHGT USA_SEARAD_NE USA_SEARAD_SE USA_SEARAD_SW USA_SEARAD_NW STORM_SPEED STORM_DIR
1929021S10068 1929 7 SI MM NOT_NAMED 1929-01-21 06:00:00 NR -10.2000 68.0000 reunion main 1564 1556 _____O________ -1 -10.2000 68.0000 99 9.90000 2 206
1929021S10068 1929 7 SI MM NOT_NAMED 1929-01-21 09:00:00 NR -10.2795 67.9641 main 1556 1540 _____P________ -1 -10.2795 67.9641 99 2 207
1929021S10068 1929 7 SI MM NOT_NAMED 1929-01-21 12:00:00 NR -10.3622 67.9233 main 1540 1540 _____P________ -1 -10.3622 67.9233 99 2 208
1929021S10068 1929 7 SI MM NOT_NAMED 1929-01-21 15:00:00 NR -10.4512 67.8727 main 1532 1524 _____P________ -1 -10.4512 67.8727 99 2 210
1929021S10068 1929 7 SI MM NOT_NAMED 1929-01-21 18:00:00 NR -10.5496 67.8074 main 1524 1501 _____P________ -1 -10.5496 67.8074 99 3 215
1929021S10068 1929 7 SI MM NOT_NAMED 1929-01-21 21:00:00 NR -10.6605 67.7224 main 1501 1485 _____P________ -1 -10.6605 67.7224 99 3 219
1929021S10068 1929 7 SI MM NOT_NAMED 1929-01-22 00:00:00 NR -10.7872 67.6128 main 1485 1469 _____P________ -1 -10.7872 67.6128 99 4 222
1929021S10068 1929 7 SI MM NOT_NAMED 1929-01-22 03:00:00 NR -10.9326 67.4737 main 1469 1446 _____P________ -1 -10.9326 67.4737 99 4 231
1929021S10068 1929 7 SI MM NOT_NAMED 1929-01-22 06:00:00 TS -11.0333 67.3000 reunion main 1446 1415 _____O___OO___ -1 -11.1000 67.3000 99 9.90000 -10.9000 67.3000 TC 35 -10.9000 67.3000 2 5 232
1929021S10068 1929 7 SI MM NOT_NAMED 1929-01-22 09:00:00 TS -11.2449 67.0643 main 1415 1368 _____P___PP___ -1 -11.2916 67.0884 99 -11.2100 67.0626 TC 35 -11.1862 67.0178 2 7 227
1929021S10068 1929 7 SI MM NOT_NAMED 1929-01-22 12:00:00 TS -11.4930 66.7982 main 1368 1329 _____P___OP___ -1 -11.5066 66.8420 99 -11.5000 66.8000 TC 35 -11.4678 66.7382 2 7 227
1929021S10068 1929 7 SI MM NOT_NAMED 1929-01-22 15:00:00 TS -11.7471 66.5100 main 1329 1282 _____P___PP___ -1 -11.7434 66.5655 99 -11.7575 66.5000 TC 35 -11.7405 66.4645 2 8 228
1929021S10068 1929 7 SI MM NOT_NAMED 1929-01-22 18:00:00 TS -12.0001 66.2213 main 1282 1251 _____P___OO___ -1 -12.0004 66.2639 99 -12.0000 66.2000 TC 35 -12.0000 66.2000 2 8 227
1929021S10068 1929 7 SI MM NOT_NAMED 1929-01-22 21:00:00 TS -12.2569 65.9455 main 1235 1204 _____P___PP___ -1 -12.2761 65.9417 99 -12.2499 65.9499 TC 35 -12.2448 65.9448 2 8 226
1929021S10068 1929 7 SI MM NOT_NAMED 1929-01-23 00:00:00 TS -12.5179 65.6635 main 1204 1157 _____P___OP___ -1 -12.5689 65.6038 99 -12.5000 65.7000 TC 35 -12.4846 65.6868 2 8 227
1929021S10068 1929 7 SI MM NOT_NAMED 1929-01-23 03:00:00 TS -12.7815 65.3626 main 1157 1119 _____P___PP___ -1 -12.8774 65.2550 99 -12.7349 65.4223 TC 35 -12.7322 65.4104 2 8 228
1929021S10068 1929 7 SI MM NOT_NAMED 1929-01-23 06:00:00 TS -13.0667 65.0333 reunion main 1103 1056 _____O___OO___ -1 -13.2000 64.9000 99 9.90000 -13.0000 65.1000 TC 35 -13.0000 65.1000 2 9 230
1929021S10068 1929 7 SI MM NOT_NAMED 1929-01-23 09:00:00 TS -13.3804 64.6388 main 1049 995 _____P___PP___ -1 -13.5073 64.4695 99 -13.3425 64.7150 TC 35 -13.2914 64.7318 2 10 231
1929021S10068 1929 7 SI MM NOT_NAMED 1929-01-23 12:00:00 TS -13.7114 64.2156 main 995 941 _____P___OP___ -1 -13.8290 64.0170 99 -13.7000 64.3000 TC 35 -13.6052 64.3298 2 11 231
1929021S10068 1929 7 SI MM NOT_NAMED 1929-01-23 15:00:00 TS -14.0356 63.7944 main 941 879 _____P___PP___ -1 -14.1657 63.5631 99 -13.9999 63.9073 TC 35 -13.9413 63.9129 2 11 231
1929021S10068 1929 7 SI MM NOT_NAMED 1929-01-23 18:00:00 TS -14.3726 63.3761 main 879 825 _____P___OO___ -1 -14.5179 63.1284 99 -14.3000 63.5000 TC 35 -14.3000 63.5000 2 11 231
1929021S10068 1929 7 SI MM NOT_NAMED 1929-01-23 21:00:00 TS -14.7242 62.9301 main 818 756 _____P___PP___ -1 -14.8864 62.7338 99 -14.6276 63.0350 TC 35 -14.6585 63.0214 2 11 228
1929021S10068 1929 7 SI MM NOT_NAMED 1929-01-24 00:00:00 TS -15.1042 62.5215 main 756 701 _____P___OP___ -1 -15.2723 62.4001 99 -15.0000 62.6000 TC 35 -15.0405 62.5644 2 11 222
1929021S10068 1929 7 SI MM NOT_NAMED 1929-01-24 03:00:00 TS -15.5162 62.1887 main 701 653 _____P___PP___ -1 -15.6764 62.1484 99 -15.4200 62.2177 TC 35 -15.4521 62.2000 2 10 210
1929021S10068 1929 7 SI MM NOT_NAMED 1929-01-24 06:00:00 TS -15.9667 62.0000 reunion main 645 614 _____O___OO___ -1 -16.1000 62.0000 99 9.90000 -15.9000 62.0000 TC 35 -15.9000 62.0000 2 10 190
1929021S10068 1929 7 SI MM NOT_NAMED 1929-01-24 09:00:00 TS -16.4585 62.0148 main 606 586 _____P___PP___ -1 -16.5364 62.0029 99 -16.4424 62.0024 TC 35 -16.3969 62.0389 2 10 170
1929021S10068 1929 7 SI MM NOT_NAMED 1929-01-24 12:00:00 TS -16.9737 62.1845 main 587 573 _____P___OP___ -1 -16.9939 62.1078 99 -17.0000 62.2000 TC 35 -16.9273 62.2457 2 11 157
1929021S10068 1929 7 SI MM NOT_NAMED 1929-01-24 15:00:00 TS -17.4820 62.4579 main 582 575 _____P___PP___ -1 -17.4693 62.2990 99 -17.5076 62.5199 TC 35 -17.4690 62.5549 2 12 150
1929021S10068 1929 7 SI MM NOT_NAMED 1929-01-24 18:00:00 TS -17.9864 62.7870 main 584 579 _____P___OO___ -1 -17.9593 62.5610 99 -18.0000 62.9000 TC 35 -18.0000 62.9000 2 12 149
1929021S10068 1929 7 SI MM NOT_NAMED 1929-01-24 21:00:00 TS -18.4817 63.0816 main 591 587 _____P___PP___ -1 -18.4606 62.8781 99 -18.5074 63.2077 TC 35 -18.4769 63.1591 2 11 150
1929021S10068 1929 7 SI MM NOT_NAMED 1929-01-25 00:00:00 TS -18.9707 63.3920 main 604 601 _____P___OP___ -1 -18.9699 63.2344 99 -19.0000 63.5000 TC 35 -18.9421 63.4415 2 11 148
1929021S10068 1929 7 SI MM NOT_NAMED 1929-01-25 03:00:00 TS -19.4459 63.7150 main 625 623 _____P___PP___ -1 -19.4841 63.6137 99 -19.4423 63.7780 TC 35 -19.4112 63.7531 2 12 147
1929021S10068 1929 7 SI MM NOT_NAMED 1929-01-25 06:00:00 TS -19.9333 64.0667 reunion main 659 658 _____O___OO___ -1 -20.0000 64.0000 99 9.90000 -19.9000 64.1000 TC 35 -19.9000 64.1000 2 13 146
1929021S10068 1929 7 SI MM NOT_NAMED 1929-01-25 09:00:00 TS -20.4843 64.4667 main 698 698 _____P___PP___ -1 -20.5729 64.3605 99 -20.4351 64.5349 TC 35 -20.4450 64.5046 2 14 145
1929021S10068 1929 7 SI MM NOT_NAMED 1929-01-25 12:00:00 TS -21.0555 64.8958 main 743 743 _____P___OP___ -1 -21.1586 64.7457 99 -21.0000 65.0000 TC 35 -21.0080 64.9415 2 14 145
1929021S10068 1929 7 SI MM NOT_NAMED 1929-01-25 15:00:00 TS -21.6246 65.3140 main 792 792 _____P___PP___ -1 -21.7420 65.1440 99 -21.5649 65.4152 TC 35 -21.5669 65.3828 2 14 146
1929021S10068 1929 7 SI MM NOT_NAMED 1929-01-25 18:00:00 TS -22.1693 65.7145 main 845 845 _____P___OO___ -1 -22.3080 65.5434 99 -22.1000 65.8000 TC 35 -22.1000 65.8000 2 13 145
1929021S10068 1929 7 SI MM NOT_NAMED 1929-01-25 21:00:00 TS -22.6660 66.0893 main 899 899 _____P___PP___ -1 -22.8416 65.9315 99 -22.5649 66.1653 TC 35 -22.5913 66.1711 2 12 146
1929021S10068 1929 7 SI MM NOT_NAMED 1929-01-26 00:00:00 TS -23.1454 66.4190 main 941 941 _____P___OP___ -1 -23.3280 66.2958 99 -23.0000 66.5000 TC 35 -23.0473 66.5023 2 11 149
1929021S10068 1929 7 SI MM NOT_NAMED 1929-01-26 03:00:00 TS -23.6073 66.7151 main 988 988 _____P___PP___ -1 -23.7523 66.6230 99 -23.4451 66.8071 TC 35 -23.4797 66.8073 2 10 150
1929021S10068 1929 7 SI MM NOT_NAMED 1929-01-26 06:00:00 TS -24.0333 66.9667 reunion main 1033 1033 _____O___OO___ -1 -24.1000 66.9000 99 9.90000 -23.9000 67.1000 TC 35 -23.9000 67.1000 2 8 154
1929021S10068 1929 7 SI MM NOT_NAMED 1929-01-26 09:00:00 NR -24.3609 67.1168 main 1059 1059 _____P________ -1 -24.3609 67.1168 99 TC 2 6 151
1929021S10068 1929 7 SI MM NOT_NAMED 1929-01-26 12:00:00 NR -24.5422 67.2773 main 1082 1082 _____P________ -1 -24.5422 67.2773 99 2 4 140
1929021S10068 1929 7 SI MM NOT_NAMED 1929-01-26 15:00:00 NR -24.6555 67.3892 main 1100 1100 _____P________ -1 -24.6555 67.3892 99 2 2 136
1929021S10068 1929 7 SI MM NOT_NAMED 1929-01-26 18:00:00 NR -24.7122 67.4604 main 1109 1109 _____P________ -1 -24.7122 67.4604 99 1 125
1929021S10068 1929 7 SI MM NOT_NAMED 1929-01-26 21:00:00 NR -24.7237 67.4989 main 1109 1109 _____P________ -1 -24.7237 67.4989 99 0 74
1929021S10068 1929 7 SI MM NOT_NAMED 1929-01-27 00:00:00 NR -24.7013 67.5129 main 1109 1109 _____P________ -1 -24.7013 67.5129 99 1 10
1929021S10068 1929 7 SI MM NOT_NAMED 1929-01-27 03:00:00 NR -24.6563 67.5105 main 1109 1105 _____P________ -1 -24.6563 67.5105 99 1 345
1929021S10068 1929 7 SI MM NOT_NAMED 1929-01-27 06:00:00 NR -24.6000 67.5000 reunion main 1105 _____O________ -1 -24.6000 67.5000 99 9.90000 1 0

IBTrACS Databaseについて

本データベースは、米国NOAAが公開する1842年以降の世界の熱帯低気圧のベストトラックデータアーカイブInternational Best Track Archive for Climate Stewardship (IBTrACS)を、ウェブで閲覧しやすい形式に変換したものです。

最終更新日:2021-12-06